createdAt,value
2017-11-17T00:00:11.304Z,959.17
2017-11-17T00:01:11.286Z,959.19
2017-11-17T00:02:11.270Z,959.2
2017-11-17T00:03:11.252Z,959.14
2017-11-17T00:04:11.237Z,959.16
2017-11-17T00:05:11.224Z,959.17
2017-11-17T00:06:11.200Z,959.16
2017-11-17T00:07:11.182Z,959.15
2017-11-17T00:08:11.165Z,959.18
2017-11-17T00:09:11.147Z,959.17
2017-11-17T00:10:11.132Z,959.19
2017-11-17T00:11:11.112Z,959.23
2017-11-17T00:12:11.096Z,959.19
2017-11-17T00:13:11.078Z,959.17
2017-11-17T00:14:11.062Z,959.18
2017-11-17T00:15:11.044Z,959.19
2017-11-17T00:16:11.027Z,959.21
2017-11-17T00:17:11.012Z,959.17
2017-11-17T00:18:10.999Z,959.24
2017-11-17T00:19:10.975Z,959.26
2017-11-17T00:20:10.959Z,959.23
2017-11-17T00:21:10.940Z,959.29
2017-11-17T00:22:10.922Z,959.28
2017-11-17T00:23:10.907Z,959.28
2017-11-17T00:24:10.888Z,959.27
2017-11-17T00:25:10.872Z,959.28
2017-11-17T00:26:10.856Z,959.28
2017-11-17T00:27:10.837Z,959.24
2017-11-17T00:28:10.820Z,959.22
2017-11-17T00:29:10.805Z,959.29
2017-11-17T00:30:10.783Z,959.33
2017-11-17T00:31:10.788Z,959.28
2017-11-17T00:32:10.748Z,959.3
2017-11-17T00:33:10.732Z,959.29
2017-11-17T00:34:10.715Z,959.31
2017-11-17T00:35:10.696Z,959.32
2017-11-17T00:36:10.679Z,959.31
2017-11-17T00:37:10.661Z,959.26
2017-11-17T00:38:10.645Z,959.26
2017-11-17T00:39:10.627Z,959.27
2017-11-17T00:40:10.609Z,959.25
2017-11-17T00:41:10.593Z,959.25
2017-11-17T00:42:10.575Z,959.27
2017-11-17T00:43:10.562Z,959.24
2017-11-17T00:44:10.540Z,959.25
2017-11-17T00:45:10.527Z,959.29
2017-11-17T00:46:10.510Z,959.26
2017-11-17T00:47:10.510Z,959.23
2017-11-17T00:48:10.469Z,959.24
2017-11-17T00:49:10.453Z,959.24
2017-11-17T00:50:10.434Z,959.17
2017-11-17T00:51:10.419Z,959.16
2017-11-17T00:52:10.403Z,959.15
2017-11-17T00:53:10.384Z,959.18
2017-11-17T00:54:10.366Z,959.16
2017-11-17T00:55:10.349Z,959.18
2017-11-17T00:56:10.331Z,959.24
2017-11-17T00:57:10.314Z,959.23
2017-11-17T00:58:10.296Z,959.23
2017-11-17T00:59:10.279Z,959.25
2017-11-17T01:00:10.261Z,959.26
2017-11-17T01:01:10.245Z,959.33
2017-11-17T01:02:10.226Z,959.31
2017-11-17T01:03:10.210Z,959.3
2017-11-17T01:04:10.193Z,959.25
2017-11-17T01:05:10.175Z,959.28
2017-11-17T01:06:10.176Z,959.2
2017-11-17T01:07:10.143Z,959.21
2017-11-17T01:08:10.123Z,959.15
2017-11-17T01:09:10.106Z,959.13
2017-11-17T01:10:10.087Z,959.11
2017-11-17T01:11:10.072Z,959.08
2017-11-17T01:12:10.054Z,959.08
2017-11-17T01:13:10.035Z,959.07
2017-11-17T01:14:10.020Z,959.07
2017-11-17T01:15:10.002Z,959.02
2017-11-17T01:16:09.986Z,958.99
2017-11-17T01:17:09.968Z,959.04
2017-11-17T01:18:10.153Z,959.05
2017-11-17T01:19:09.933Z,959.12
2017-11-17T01:20:09.920Z,959.19
2017-11-17T01:21:09.899Z,959.14
2017-11-17T01:22:09.884Z,959.17
2017-11-17T01:23:09.866Z,959.1
2017-11-17T01:24:09.847Z,959.18
2017-11-17T01:25:09.830Z,959.21
2017-11-17T01:26:09.815Z,959.17
2017-11-17T01:27:09.797Z,959.15
2017-11-17T01:28:09.780Z,959.17
2017-11-17T01:29:09.762Z,959.13
2017-11-17T01:30:09.745Z,959.17
2017-11-17T01:31:09.735Z,959.19
2017-11-17T01:32:09.711Z,959.18
2017-11-17T01:33:09.713Z,959.15
2017-11-17T01:34:09.697Z,959.18
2017-11-17T01:35:09.669Z,959.18
2017-11-17T01:36:09.644Z,959.16
2017-11-17T01:37:09.635Z,959.15
2017-11-17T01:38:09.615Z,959.18
2017-11-17T01:39:09.592Z,959.12
2017-11-17T01:40:09.580Z,959.08
2017-11-17T01:41:09.564Z,959.05
2017-11-17T01:42:09.543Z,959.04
2017-11-17T01:43:09.525Z,959.04
2017-11-17T01:44:09.509Z,959.01
2017-11-17T01:45:09.491Z,959.06
2017-11-17T01:46:09.475Z,959.01
2017-11-17T01:47:09.457Z,959
2017-11-17T01:48:09.441Z,958.97
2017-11-17T01:49:09.426Z,959.01
2017-11-17T01:50:09.406Z,959.04
2017-11-17T01:51:09.396Z,958.97
2017-11-17T01:52:09.373Z,958.98
2017-11-17T01:53:09.358Z,959
2017-11-17T01:54:09.342Z,959.03
2017-11-17T01:55:09.321Z,958.98
2017-11-17T01:56:09.307Z,959.04
2017-11-17T01:57:09.291Z,959.03
2017-11-17T01:58:09.273Z,959.04
2017-11-17T01:59:09.257Z,959.06
2017-11-17T02:00:09.238Z,959.07
2017-11-17T02:01:09.234Z,959.04
2017-11-17T02:02:09.205Z,959.05
2017-11-17T02:03:09.188Z,959.07
2017-11-17T02:04:09.194Z,959.12
2017-11-17T02:05:09.154Z,959.08
2017-11-17T02:06:09.141Z,959.07
2017-11-17T02:07:09.121Z,959.14
2017-11-17T02:08:09.104Z,959.07
2017-11-17T02:09:09.095Z,959.14
2017-11-17T02:10:09.070Z,959.14
2017-11-17T02:11:15.909Z,959.15
2017-11-17T02:12:09.039Z,959.13
2017-11-17T02:13:09.020Z,959.14
2017-11-17T02:14:09.003Z,959.14
2017-11-17T02:15:08.988Z,959.1
2017-11-17T02:16:08.970Z,959.14
2017-11-17T02:17:08.958Z,959.17
2017-11-17T02:18:08.937Z,959.14
2017-11-17T02:19:08.920Z,959.13
2017-11-17T02:20:08.911Z,959.09
2017-11-17T02:21:08.892Z,959.11
2017-11-17T02:22:08.873Z,959.11
2017-11-17T02:23:08.857Z,959.12
2017-11-17T02:24:08.838Z,959.1
2017-11-17T02:25:08.822Z,959.12
2017-11-17T02:26:08.807Z,959.12
2017-11-17T02:27:08.795Z,959.13
2017-11-17T02:28:08.775Z,959.14
2017-11-17T02:29:08.756Z,959.09
2017-11-17T02:30:08.740Z,959.14
2017-11-17T02:31:08.725Z,959.15
2017-11-17T02:32:08.707Z,959.17
2017-11-17T02:33:08.692Z,959.19
2017-11-17T02:34:08.675Z,959.21
2017-11-17T02:35:08.657Z,959.22
2017-11-17T02:36:08.641Z,959.23
2017-11-17T02:37:08.631Z,959.22
2017-11-17T02:38:08.607Z,959.25
2017-11-17T02:39:08.591Z,959.26
2017-11-17T02:40:08.575Z,959.25
2017-11-17T02:41:08.556Z,959.25
2017-11-17T02:42:08.541Z,959.24
2017-11-17T02:43:08.524Z,959.24
2017-11-17T02:44:08.517Z,959.26
2017-11-17T02:45:08.529Z,959.25
2017-11-17T02:46:08.476Z,959.29
2017-11-17T02:47:08.458Z,959.31
2017-11-17T02:48:08.444Z,959.32
2017-11-17T02:49:08.428Z,959.31
2017-11-17T02:50:08.415Z,959.3
2017-11-17T02:51:08.392Z,959.33
2017-11-17T02:52:08.376Z,959.36
2017-11-17T02:53:08.378Z,959.3
2017-11-17T02:54:08.343Z,959.25
2017-11-17T02:55:08.328Z,959.24
2017-11-17T02:56:08.351Z,959.19
2017-11-17T02:57:08.292Z,959.17
2017-11-17T02:58:08.278Z,959.26
2017-11-17T02:59:08.259Z,959.26
2017-11-17T03:00:08.245Z,959.19
2017-11-17T03:01:08.244Z,959.19
2017-11-17T03:02:08.211Z,959.2
2017-11-17T03:03:08.196Z,959.18
2017-11-17T03:04:08.178Z,959.2
2017-11-17T03:05:08.168Z,959.2
2017-11-17T03:06:08.145Z,959.19
2017-11-17T03:07:08.128Z,959.19
2017-11-17T03:08:08.112Z,959.21
2017-11-17T03:09:08.094Z,959.23
2017-11-17T03:10:08.078Z,959.23
2017-11-17T03:11:08.061Z,959.25
2017-11-17T03:12:08.047Z,959.24
2017-11-17T03:13:08.030Z,959.3
2017-11-17T03:14:08.021Z,959.28
2017-11-17T03:15:08.000Z,959.28
2017-11-17T03:16:08.007Z,959.29
2017-11-17T03:17:07.965Z,959.32
2017-11-17T03:18:07.951Z,959.3
2017-11-17T03:19:07.943Z,959.33
2017-11-17T03:20:07.918Z,959.31
2017-11-17T03:21:07.898Z,959.3
2017-11-17T03:22:07.885Z,959.32
2017-11-17T03:23:07.867Z,959.29
2017-11-17T03:24:07.859Z,959.34
2017-11-17T03:25:07.844Z,959.34
2017-11-17T03:26:07.834Z,959.38
2017-11-17T03:27:07.802Z,959.43
2017-11-17T03:28:07.786Z,959.48
2017-11-17T03:29:07.770Z,959.47
2017-11-17T03:30:07.763Z,959.46
2017-11-17T03:31:07.744Z,959.5
2017-11-17T03:32:07.720Z,959.5
2017-11-17T03:33:07.721Z,959.51
2017-11-17T03:34:07.696Z,959.48
2017-11-17T03:35:07.673Z,959.46
2017-11-17T03:36:07.657Z,959.48
2017-11-17T03:37:07.663Z,959.5
2017-11-17T03:38:07.625Z,959.53
2017-11-17T03:39:07.610Z,959.53
2017-11-17T03:40:07.593Z,959.52
2017-11-17T03:41:07.576Z,959.65
2017-11-17T03:42:07.571Z,959.57
2017-11-17T03:43:07.542Z,959.61
2017-11-17T03:44:07.528Z,959.63
2017-11-17T03:45:07.516Z,959.66
2017-11-17T03:46:07.496Z,959.61
2017-11-17T03:47:07.492Z,959.63
2017-11-17T03:48:07.463Z,959.63
2017-11-17T03:49:07.448Z,959.67
2017-11-17T03:50:07.430Z,959.66
2017-11-17T03:51:07.414Z,959.68
2017-11-17T03:52:07.399Z,959.63
2017-11-17T03:53:07.383Z,959.7
2017-11-17T03:54:07.367Z,959.66
2017-11-17T03:55:07.350Z,959.64
2017-11-17T03:56:07.350Z,959.69
2017-11-17T03:57:07.320Z,959.7
2017-11-17T03:58:07.303Z,959.64
2017-11-17T03:59:07.286Z,959.63
2017-11-17T04:00:07.269Z,959.65
2017-11-17T04:01:07.256Z,959.64
2017-11-17T04:02:07.239Z,959.65
2017-11-17T04:03:07.222Z,959.69
2017-11-17T04:04:07.207Z,959.64
2017-11-17T04:05:07.191Z,959.62
2017-11-17T04:06:07.176Z,959.64
2017-11-17T04:07:07.158Z,959.6
2017-11-17T04:08:07.145Z,959.61
2017-11-17T04:09:07.127Z,959.69
2017-11-17T04:10:07.115Z,959.64
2017-11-17T04:11:07.098Z,959.71
2017-11-17T04:12:07.079Z,959.73
2017-11-17T04:13:07.062Z,959.67
2017-11-17T04:14:07.048Z,959.71
2017-11-17T04:15:07.030Z,959.66
2017-11-17T04:16:07.016Z,959.7
2017-11-17T04:17:06.998Z,959.71
2017-11-17T04:18:06.984Z,959.72
2017-11-17T04:19:06.976Z,959.73
2017-11-17T04:20:06.951Z,959.75
2017-11-17T04:21:06.935Z,959.73
2017-11-17T04:22:06.922Z,959.72
2017-11-17T04:23:06.911Z,959.78
2017-11-17T04:24:06.886Z,959.76
2017-11-17T04:25:06.878Z,959.81
2017-11-17T04:26:06.856Z,959.83
2017-11-17T04:27:06.838Z,959.84
2017-11-17T04:28:06.829Z,959.79
2017-11-17T04:29:06.808Z,959.82
2017-11-17T04:30:06.793Z,959.79
2017-11-17T04:31:06.776Z,959.79
2017-11-17T04:32:06.760Z,959.82
2017-11-17T04:33:06.753Z,959.83
2017-11-17T04:34:06.726Z,959.82
2017-11-17T04:35:06.712Z,959.82
2017-11-17T04:36:06.698Z,959.81
2017-11-17T04:37:06.681Z,959.8
2017-11-17T04:38:06.664Z,959.79
2017-11-17T04:39:06.647Z,959.81
2017-11-17T04:40:06.632Z,959.84
2017-11-17T04:41:06.645Z,959.84
2017-11-17T04:42:06.613Z,959.85
2017-11-17T04:43:06.584Z,959.85
2017-11-17T04:44:06.572Z,959.88
2017-11-17T04:45:06.553Z,959.87
2017-11-17T04:46:06.536Z,959.92
2017-11-17T04:47:06.528Z,959.88
2017-11-17T04:48:06.504Z,959.87
2017-11-17T04:49:06.492Z,959.89
2017-11-17T04:50:06.473Z,959.95
2017-11-17T04:51:06.459Z,959.95
2017-11-17T04:52:06.441Z,959.91
2017-11-17T04:53:06.424Z,959.95
2017-11-17T04:54:06.408Z,959.96
2017-11-17T04:55:06.393Z,960.02
2017-11-17T04:56:06.382Z,960.03
2017-11-17T04:57:06.360Z,959.99
2017-11-17T04:58:06.359Z,960.03
2017-11-17T04:59:06.339Z,959.97
2017-11-17T05:00:06.315Z,960.01
2017-11-17T05:01:06.296Z,959.96
2017-11-17T05:02:06.281Z,959.97
2017-11-17T05:03:06.265Z,959.96
2017-11-17T05:04:06.268Z,959.97
2017-11-17T05:05:06.234Z,959.96
2017-11-17T05:06:06.221Z,959.95
2017-11-17T05:07:06.209Z,959.99
2017-11-17T05:08:06.186Z,960.03
2017-11-17T05:09:06.171Z,960.03
2017-11-17T05:10:06.154Z,960.02
2017-11-17T05:11:06.143Z,960.07
2017-11-17T05:12:06.123Z,960.02
2017-11-17T05:13:06.120Z,960.01
2017-11-17T05:14:06.091Z,960
2017-11-17T05:15:06.074Z,960.03
2017-11-17T05:16:06.059Z,960.02
2017-11-17T05:17:06.055Z,960.02
2017-11-17T05:18:06.028Z,960.01
2017-11-17T05:19:06.011Z,960.01
2017-11-17T05:20:06.015Z,960.06
2017-11-17T05:21:05.980Z,960.03
2017-11-17T05:22:05.966Z,960.01
2017-11-17T05:23:05.948Z,960
2017-11-17T05:24:05.934Z,960
2017-11-17T05:25:05.916Z,959.97
2017-11-17T05:26:05.900Z,959.97
2017-11-17T05:27:05.886Z,959.99
2017-11-17T05:28:05.869Z,959.96
2017-11-17T05:29:05.853Z,960.02
2017-11-17T05:30:05.838Z,959.99
2017-11-17T05:31:05.822Z,960.03
2017-11-17T05:32:05.806Z,959.99
2017-11-17T05:33:05.790Z,960
2017-11-17T05:34:05.775Z,960.04
2017-11-17T05:35:05.759Z,960.02
2017-11-17T05:36:05.745Z,960.06
2017-11-17T05:37:05.728Z,960.01
2017-11-17T05:38:05.711Z,960.04
2017-11-17T05:39:05.696Z,960.04
2017-11-17T05:40:05.680Z,960.08
2017-11-17T05:41:05.665Z,960.05
2017-11-17T05:42:05.649Z,960.08
2017-11-17T05:43:05.634Z,960.05
2017-11-17T05:44:05.624Z,960.03
2017-11-17T05:45:05.602Z,960.03
2017-11-17T05:46:05.584Z,960.03
2017-11-17T05:47:05.570Z,960.02
2017-11-17T05:48:05.553Z,960.01
2017-11-17T05:49:05.539Z,960.02
2017-11-17T05:50:05.524Z,959.97
2017-11-17T05:51:05.506Z,960.02
2017-11-17T05:52:05.492Z,960
2017-11-17T05:53:05.476Z,960.05
2017-11-17T05:54:05.460Z,959.99
2017-11-17T05:55:05.443Z,960.01
2017-11-17T05:56:05.428Z,960.01
2017-11-17T05:57:05.412Z,960.01
2017-11-17T05:58:05.396Z,960.06
2017-11-17T05:59:05.389Z,960.05
2017-11-17T06:00:05.383Z,960.04
2017-11-17T06:01:05.348Z,960.02
2017-11-17T06:02:05.331Z,960.01
2017-11-17T06:03:05.316Z,960.01
2017-11-17T06:04:05.300Z,960.01
2017-11-17T06:05:05.287Z,960.01
2017-11-17T06:06:05.268Z,960.02
2017-11-17T06:07:05.255Z,960.05
2017-11-17T06:08:05.248Z,960.01
2017-11-17T06:09:05.227Z,960.01
2017-11-17T06:10:05.208Z,960.02
2017-11-17T06:11:05.201Z,960.06
2017-11-17T06:12:05.174Z,960.03
2017-11-17T06:13:05.158Z,960.08
2017-11-17T06:14:05.145Z,960.07
2017-11-17T06:15:05.128Z,960.1
2017-11-17T06:16:05.120Z,960.13
2017-11-17T06:17:05.096Z,960.09
2017-11-17T06:18:05.081Z,960.13
2017-11-17T06:19:05.062Z,960.18
2017-11-17T06:20:05.049Z,960.14
2017-11-17T06:21:05.039Z,960.19
2017-11-17T06:22:05.016Z,960.21
2017-11-17T06:23:05.000Z,960.19
2017-11-17T06:24:04.989Z,960.19
2017-11-17T06:25:04.968Z,960.2
2017-11-17T06:26:04.953Z,960.19
2017-11-17T06:27:04.938Z,960.2
2017-11-17T06:28:04.921Z,960.24
2017-11-17T06:29:05.109Z,960.18
2017-11-17T06:30:04.891Z,960.22
2017-11-17T06:31:04.885Z,960.23
2017-11-17T06:32:04.857Z,960.2
2017-11-17T06:33:04.843Z,960.22
2017-11-17T06:34:04.828Z,960.24
2017-11-17T06:35:04.810Z,960.27
2017-11-17T06:36:04.795Z,960.33
2017-11-17T06:37:04.802Z,960.34
2017-11-17T06:38:04.764Z,960.35
2017-11-17T06:39:04.750Z,960.3
2017-11-17T06:40:04.732Z,960.31
2017-11-17T06:41:04.731Z,960.32
2017-11-17T06:42:04.701Z,960.33
2017-11-17T06:43:04.684Z,960.33
2017-11-17T06:44:04.670Z,960.35
2017-11-17T06:45:04.655Z,960.28
2017-11-17T06:46:04.636Z,960.36
2017-11-17T06:47:04.623Z,960.31
2017-11-17T06:48:04.606Z,960.32
2017-11-17T06:49:04.595Z,960.29
2017-11-17T06:50:04.581Z,960.32
2017-11-17T06:51:04.564Z,960.32
2017-11-17T06:52:04.544Z,960.33
2017-11-17T06:53:04.526Z,960.29
2017-11-17T06:54:04.509Z,960.31
2017-11-17T06:55:04.496Z,960.32
2017-11-17T06:56:04.481Z,960.31
2017-11-17T06:57:04.463Z,960.35
2017-11-17T06:58:04.448Z,960.36
2017-11-17T06:59:04.432Z,960.38
2017-11-17T07:00:04.418Z,960.39
2017-11-17T07:01:04.398Z,960.42
2017-11-17T07:02:04.384Z,960.43
2017-11-17T07:03:04.369Z,960.47
2017-11-17T07:04:04.354Z,960.46
2017-11-17T07:05:04.337Z,960.46
2017-11-17T07:06:04.321Z,960.5
2017-11-17T07:07:04.305Z,960.52
2017-11-17T07:08:04.289Z,960.52
2017-11-17T07:09:04.275Z,960.53
2017-11-17T07:10:04.258Z,960.52
2017-11-17T07:11:04.244Z,960.54
2017-11-17T07:12:04.229Z,960.59
2017-11-17T07:13:04.213Z,960.59
2017-11-17T07:14:04.197Z,960.59
2017-11-17T07:15:04.182Z,960.61
2017-11-17T07:16:04.164Z,960.6
2017-11-17T07:17:04.151Z,960.62
2017-11-17T07:18:04.133Z,960.64
2017-11-17T07:19:04.127Z,960.6
2017-11-17T07:20:04.110Z,960.64
2017-11-17T07:21:04.089Z,960.63
2017-11-17T07:22:04.070Z,960.65
2017-11-17T07:23:04.063Z,960.64
2017-11-17T07:24:04.039Z,960.61
2017-11-17T07:25:04.023Z,960.59
2017-11-17T07:26:04.008Z,960.61
2017-11-17T07:27:03.991Z,960.61
2017-11-17T07:28:03.984Z,960.59
2017-11-17T07:29:03.962Z,960.59
2017-11-17T07:30:03.946Z,960.6
2017-11-17T07:31:03.966Z,960.6
2017-11-17T07:32:03.914Z,960.62
2017-11-17T07:33:03.898Z,960.64
2017-11-17T07:34:03.882Z,960.66
2017-11-17T07:35:03.866Z,960.68
2017-11-17T07:36:03.852Z,960.66
2017-11-17T07:37:03.835Z,960.68
2017-11-17T07:38:03.817Z,960.67
2017-11-17T07:39:03.813Z,960.69
2017-11-17T07:40:03.787Z,960.73
2017-11-17T07:41:03.773Z,960.72
2017-11-17T07:42:03.756Z,960.75
2017-11-17T07:43:03.741Z,960.8
2017-11-17T07:44:03.723Z,960.81
2017-11-17T07:45:03.709Z,960.79
2017-11-17T07:46:03.692Z,960.84
2017-11-17T07:47:03.680Z,960.82
2017-11-17T07:48:03.661Z,960.82
2017-11-17T07:49:03.645Z,960.84
2017-11-17T07:50:03.629Z,960.84
2017-11-17T07:51:03.619Z,960.85
2017-11-17T07:52:03.598Z,960.9
2017-11-17T07:53:03.582Z,960.88
2017-11-17T07:54:03.568Z,960.9
2017-11-17T07:55:03.552Z,960.92
2017-11-17T07:56:03.534Z,960.94
2017-11-17T07:57:03.520Z,960.94
2017-11-17T07:58:03.505Z,960.95
2017-11-17T07:59:03.489Z,960.96
2017-11-17T08:00:03.477Z,960.92
2017-11-17T08:01:03.465Z,960.91
2017-11-17T08:02:03.440Z,960.97
2017-11-17T08:03:03.425Z,960.97
2017-11-17T08:04:03.424Z,961
2017-11-17T08:05:03.394Z,961.01
2017-11-17T08:06:03.377Z,961.01
2017-11-17T08:07:03.362Z,961.01
2017-11-17T08:08:03.346Z,961.04
2017-11-17T08:09:03.332Z,961.01
2017-11-17T08:10:03.314Z,961.01
2017-11-17T08:11:03.300Z,961.05
2017-11-17T08:12:03.285Z,961.02
2017-11-17T08:13:03.270Z,961.01
2017-11-17T08:14:03.251Z,960.99
2017-11-17T08:15:03.238Z,961
2017-11-17T08:16:03.220Z,961.03
2017-11-17T08:17:03.204Z,961.05
2017-11-17T08:18:03.192Z,961.04
2017-11-17T08:19:03.174Z,961.07
2017-11-17T08:20:03.159Z,961.07
2017-11-17T08:21:03.143Z,961.07
2017-11-17T08:22:03.163Z,961.09
2017-11-17T08:23:03.111Z,961.07
2017-11-17T08:24:03.095Z,961.08
2017-11-17T08:25:03.079Z,961.04
2017-11-17T08:26:03.063Z,961.08
2017-11-17T08:27:03.048Z,961.08
2017-11-17T08:28:03.031Z,961.08
2017-11-17T08:29:03.016Z,961.08
2017-11-17T08:30:03.000Z,961.05
2017-11-17T08:31:02.985Z,961.05
2017-11-17T08:32:02.989Z,961.05
2017-11-17T08:33:02.953Z,961.03
2017-11-17T08:34:02.949Z,961.06
2017-11-17T08:35:02.922Z,961.1
2017-11-17T08:36:02.907Z,961.06
2017-11-17T08:37:02.890Z,961.05
2017-11-17T08:38:02.878Z,961.06
2017-11-17T08:39:02.860Z,961.11
2017-11-17T08:40:02.844Z,961.08
2017-11-17T08:41:02.838Z,961.07
2017-11-17T08:42:02.814Z,961.12
2017-11-17T08:43:02.799Z,961.07
2017-11-17T08:44:02.782Z,961.1
2017-11-17T08:45:02.767Z,961.14
2017-11-17T08:46:02.754Z,961.12
2017-11-17T08:47:02.736Z,961.16
2017-11-17T08:48:02.730Z,961.14
2017-11-17T08:49:02.707Z,961.16
2017-11-17T08:50:02.691Z,961.12
2017-11-17T08:51:02.675Z,961.18
2017-11-17T08:52:02.661Z,961.12
2017-11-17T08:53:02.646Z,961.15
2017-11-17T08:54:02.630Z,961.17
2017-11-17T08:55:02.613Z,961.14
2017-11-17T08:56:02.600Z,961.19
2017-11-17T08:57:02.584Z,961.22
2017-11-17T08:58:02.569Z,961.21
2017-11-17T08:59:02.556Z,961.24
2017-11-17T09:00:02.539Z,961.23
2017-11-17T09:01:02.523Z,961.24
2017-11-17T09:02:02.515Z,961.25
2017-11-17T09:03:02.495Z,961.27
2017-11-17T09:04:02.478Z,961.32
2017-11-17T09:05:02.461Z,961.33
2017-11-17T09:06:02.448Z,961.32
2017-11-17T09:07:02.433Z,961.33
2017-11-17T09:08:02.415Z,961.33
2017-11-17T09:09:02.401Z,961.31
2017-11-17T09:10:02.386Z,961.34
2017-11-17T09:11:02.370Z,961.35
2017-11-17T09:12:02.361Z,961.33
2017-11-17T09:13:02.339Z,961.35
2017-11-17T09:14:02.325Z,961.34
2017-11-17T09:15:02.321Z,961.39
2017-11-17T09:16:02.295Z,961.33
2017-11-17T09:17:02.284Z,961.3
2017-11-17T09:18:02.264Z,961.34
2017-11-17T09:19:02.262Z,961.31
2017-11-17T09:20:02.234Z,961.33
2017-11-17T09:21:02.218Z,961.33
2017-11-17T09:22:02.226Z,961.31
2017-11-17T09:23:02.189Z,961.32
2017-11-17T09:24:02.175Z,961.34
2017-11-17T09:25:02.160Z,961.33
2017-11-17T09:26:02.145Z,961.31
2017-11-17T09:27:02.161Z,961.33
2017-11-17T09:28:02.117Z,961.31
2017-11-17T09:29:02.099Z,961.34
2017-11-17T09:30:02.083Z,961.35
2017-11-17T09:31:02.068Z,961.36
2017-11-17T09:32:02.094Z,961.35
2017-11-17T09:33:02.039Z,961.38
2017-11-17T09:34:02.023Z,961.41
2017-11-17T09:35:02.010Z,961.46
2017-11-17T09:36:01.994Z,961.41
2017-11-17T09:37:01.979Z,961.43
2017-11-17T09:38:01.965Z,961.46
2017-11-17T09:39:01.953Z,961.48
2017-11-17T09:40:01.934Z,961.47
2017-11-17T09:41:01.920Z,961.49
2017-11-17T09:42:01.906Z,961.5
2017-11-17T09:43:01.890Z,961.54
2017-11-17T09:44:01.876Z,961.54
2017-11-17T09:45:01.859Z,961.55
2017-11-17T09:46:01.846Z,961.57
2017-11-17T09:47:01.830Z,961.54
2017-11-17T09:48:01.817Z,961.56
2017-11-17T09:49:01.800Z,961.59
2017-11-17T09:50:01.786Z,961.58
2017-11-17T09:51:01.771Z,961.54
2017-11-17T09:52:01.757Z,961.55
2017-11-17T09:53:01.742Z,961.54
2017-11-17T09:54:01.728Z,961.55
2017-11-17T09:55:01.713Z,961.53
2017-11-17T09:56:01.698Z,961.49
2017-11-17T09:57:01.683Z,961.46
2017-11-17T09:58:01.676Z,961.46
2017-11-17T09:59:01.666Z,961.42
2017-11-17T10:00:01.648Z,961.45
2017-11-17T10:01:01.626Z,961.42
2017-11-17T10:02:01.609Z,961.46
2017-11-17T10:03:01.593Z,961.47
2017-11-17T10:04:01.581Z,961.51
2017-11-17T10:05:01.565Z,961.53
2017-11-17T10:06:01.552Z,961.51
2017-11-17T10:07:01.534Z,961.48
2017-11-17T10:08:01.518Z,961.46
2017-11-17T10:09:01.508Z,961.45
2017-11-17T10:10:01.492Z,961.45
2017-11-17T10:11:01.477Z,961.47
2017-11-17T10:12:01.460Z,961.44
2017-11-17T10:13:01.447Z,961.45
2017-11-17T10:14:01.430Z,961.45
2017-11-17T10:15:01.417Z,961.44
2017-11-17T10:16:01.403Z,961.43
2017-11-17T10:17:01.387Z,961.41
2017-11-17T10:18:01.373Z,961.37
2017-11-17T10:19:01.360Z,961.43
2017-11-17T10:20:01.347Z,961.4
2017-11-17T10:21:01.338Z,961.4
2017-11-17T10:22:01.316Z,961.36
2017-11-17T10:23:01.302Z,961.4
2017-11-17T10:24:01.287Z,961.38
2017-11-17T10:25:01.273Z,961.4
2017-11-17T10:26:01.281Z,961.35
2017-11-17T10:27:01.243Z,961.37
2017-11-17T10:28:01.228Z,961.39
2017-11-17T10:29:01.213Z,961.31
2017-11-17T10:30:01.200Z,961.34
2017-11-17T10:31:01.187Z,961.33
2017-11-17T10:32:01.173Z,961.33
2017-11-17T10:33:01.154Z,961.32
2017-11-17T10:34:01.140Z,961.35
2017-11-17T10:35:01.133Z,961.34
2017-11-17T10:36:01.118Z,961.31
2017-11-17T10:37:01.098Z,961.31
2017-11-17T10:38:01.084Z,961.3
2017-11-17T10:39:01.070Z,961.33
2017-11-17T10:40:01.055Z,961.32
2017-11-17T10:41:01.063Z,961.32
2017-11-17T10:42:01.026Z,961.29
2017-11-17T10:43:01.012Z,961.35
2017-11-17T10:44:00.998Z,961.32
2017-11-17T10:45:00.985Z,961.35
2017-11-17T10:46:00.970Z,961.35
2017-11-17T10:47:00.955Z,961.37
2017-11-17T10:48:00.939Z,961.33
2017-11-17T10:49:00.928Z,961.32
2017-11-17T10:50:00.914Z,961.33
2017-11-17T10:51:00.902Z,961.32
2017-11-17T10:52:00.894Z,961.3
2017-11-17T10:53:00.871Z,961.31
2017-11-17T10:54:00.856Z,961.31
2017-11-17T10:55:00.843Z,961.35
2017-11-17T10:56:00.828Z,961.34
2017-11-17T10:57:00.822Z,961.36
2017-11-17T10:58:00.799Z,961.34
2017-11-17T10:59:00.786Z,961.35
2017-11-17T11:00:00.774Z,961.36
2017-11-17T11:01:00.757Z,961.33
2017-11-17T11:02:00.744Z,961.39
2017-11-17T11:03:00.730Z,961.38
2017-11-17T11:04:00.716Z,961.37
2017-11-17T11:05:00.703Z,961.4
2017-11-17T11:06:00.686Z,961.39
2017-11-17T11:07:00.673Z,961.34
2017-11-17T11:08:00.658Z,961.37
2017-11-17T11:09:00.645Z,961.42
2017-11-17T11:10:00.629Z,961.4
2017-11-17T11:11:00.616Z,961.38
2017-11-17T11:12:00.602Z,961.37
2017-11-17T11:13:00.586Z,961.36
2017-11-17T11:14:00.572Z,961.41
2017-11-17T11:15:00.557Z,961.42
2017-11-17T11:16:00.543Z,961.38
2017-11-17T11:17:00.530Z,961.41
2017-11-17T11:18:00.519Z,961.43
2017-11-17T11:19:00.503Z,961.37
2017-11-17T11:20:00.486Z,961.39
2017-11-17T11:21:00.472Z,961.39
2017-11-17T11:22:00.457Z,961.39
2017-11-17T11:23:00.443Z,961.39
2017-11-17T11:24:00.428Z,961.43
2017-11-17T11:25:00.418Z,961.43
2017-11-17T11:26:00.401Z,961.42
2017-11-17T11:27:00.386Z,961.43
2017-11-17T11:28:00.370Z,961.44
2017-11-17T11:29:00.357Z,961.4
2017-11-17T11:30:00.341Z,961.39
2017-11-17T11:31:00.327Z,961.37
2017-11-17T11:32:00.312Z,961.38
2017-11-17T11:33:00.300Z,961.39
2017-11-17T11:34:00.289Z,961.4
2017-11-17T11:35:00.269Z,961.42
2017-11-17T11:36:00.256Z,961.44
2017-11-17T11:37:00.240Z,961.44
2017-11-17T11:38:00.225Z,961.44
2017-11-17T11:39:00.213Z,961.48
2017-11-17T11:40:00.197Z,961.53
2017-11-17T11:41:00.183Z,961.49
2017-11-17T11:42:00.167Z,961.49
2017-11-17T11:43:00.153Z,961.48
2017-11-17T11:44:00.139Z,961.49
2017-11-17T11:45:00.124Z,961.47
2017-11-17T11:46:00.110Z,961.48
2017-11-17T11:47:00.096Z,961.48
2017-11-17T11:48:00.081Z,961.48
2017-11-17T11:49:00.065Z,961.46
2017-11-17T11:50:00.052Z,961.44
2017-11-17T11:51:00.036Z,961.48
2017-11-17T11:52:00.023Z,961.47
2017-11-17T11:53:00.021Z,961.45
2017-11-17T11:53:59.993Z,961.43
2017-11-17T11:54:59.984Z,961.47
2017-11-17T11:55:59.964Z,961.42
2017-11-17T11:56:59.951Z,961.42
2017-11-17T11:57:59.936Z,961.42
2017-11-17T11:58:59.921Z,961.45
2017-11-17T11:59:59.907Z,961.44
2017-11-17T12:00:59.892Z,961.42
2017-11-17T12:01:59.882Z,961.49
2017-11-17T12:02:59.865Z,961.4
2017-11-17T12:03:59.850Z,961.47
2017-11-17T12:04:59.835Z,961.49
2017-11-17T12:05:59.823Z,961.44
2017-11-17T12:06:59.806Z,961.43
2017-11-17T12:07:59.795Z,961.42
2017-11-17T12:08:59.779Z,961.44
2017-11-17T12:09:59.763Z,961.45
2017-11-17T12:10:59.751Z,961.44
2017-11-17T12:11:59.734Z,961.5
2017-11-17T12:12:59.721Z,961.47
2017-11-17T12:13:59.705Z,961.49
2017-11-17T12:14:59.689Z,961.53
2017-11-17T12:15:59.678Z,961.5
2017-11-17T12:16:59.664Z,961.51
2017-11-17T12:17:59.647Z,961.51
2017-11-17T12:18:59.633Z,961.54
2017-11-17T12:19:59.663Z,961.49
2017-11-17T12:20:59.606Z,961.52
2017-11-17T12:21:59.597Z,961.52
2017-11-17T12:22:59.579Z,961.52
2017-11-17T12:23:59.565Z,961.53
2017-11-17T12:24:59.548Z,961.53
2017-11-17T12:25:59.535Z,961.51
2017-11-17T12:26:59.520Z,961.56
2017-11-17T12:27:59.506Z,961.55
2017-11-17T12:28:59.490Z,961.55
2017-11-17T12:29:59.475Z,961.54
2017-11-17T12:30:59.462Z,961.53